Overview Statistics Trail Chart Weather Telemetry Raw packets
 

This is the latest recevied telemetry packets stored in our database for station/object IU0PXN-15. If no packets are shown the sender has not sent any telemetry packets the latest 10 day(s).

Telemetry packets is used to share measurements like repeteater parameters, battery voltage, radiation readings (or any other measurements).

<< 1 2 3 4 >>
Time Press* Temp.in* Hum* QNH* Temp.out*
1788571496 964.3 hPa 26.3 C deg 51.8 % 1012.8 hPa 0 C deg
1788569681 964.4 hPa 26.4 C deg 51.7 % 1012.9 hPa 0 C deg
1788567866 964.4 hPa 26.4 C deg 51.3 % 1012.9 hPa 0 C deg
1788566053 964.7 hPa 26.5 C deg 51.3 % 1013.1 hPa 0 C deg
1788564238 964.8 hPa 26.5 C deg 50.9 % 1013.3 hPa 0 C deg
1788562421 964.8 hPa 26.6 C deg 51.1 % 1013.3 hPa 0 C deg
1788560606 964.9 hPa 26.6 C deg 50.9 % 1013.4 hPa 0 C deg
1788558791 964.8 hPa 26.6 C deg 50 % 1013.2 hPa 0 C deg
1788556976 964.8 hPa 26.7 C deg 48.7 % 1013.2 hPa 0 C deg
1788555161 964.8 hPa 26.7 C deg 47.4 % 1013.2 hPa 0 C deg
1788553345 965 hPa 26.8 C deg 45.7 % 1013.4 hPa 0 C deg
1788551530 965.1 hPa 26.8 C deg 44.7 % 1013.5 hPa 0 C deg
1788549715 964.9 hPa 26.9 C deg 45.1 % 1013.3 hPa 0 C deg
1788547907 964.8 hPa 27.1 C deg 47 % 1013.1 hPa 0 C deg
1788546085 964.4 hPa 27.3 C deg 48.5 % 1012.8 hPa 0 C deg
1788544270 964.1 hPa 27.7 C deg 49.2 % 1012.3 hPa 0 C deg
1788542455 963.8 hPa 27.9 C deg 49.2 % 1012 hPa 0 C deg
1788540640 963.7 hPa 28.7 C deg 46.8 % 1011.7 hPa 0 C deg
1788538825 963.6 hPa 29.8 C deg 40.5 % 1011.5 hPa 0 C deg
1788537010 963.5 hPa 29.7 C deg 43.6 % 1011.4 hPa 0 C deg
1788535220 963.4 hPa 29.5 C deg 43.4 % 1011.3 hPa 0 C deg
1788533376 963.4 hPa 29.3 C deg 42.2 % 1011.3 hPa 0 C deg
1788531561 963.6 hPa 28.3 C deg 47 % 1011.7 hPa 0 C deg
1788529746 963.6 hPa 27.9 C deg 47.6 % 1011.8 hPa 0 C deg
1788527931 963.8 hPa 27.5 C deg 48.3 % 1012 hPa 0 C deg
*Used Equation Coefficients:
Press: 0, 1, 0
Temp.in: 0, 1, 0
Hum: 0, 1, 0
QNH: 0, 1, 0
Temp.out: 0, 1, 0

  • The parameter names for the analog channels will be Value1, Value2, Value3 (up to Value5) if station has not sent a PARAM-packet that specifies the parameter names for each analog channel.
  • Each analog value is a decimal number between 000 and 255 (according to APRS specifications). The receiver use the telemetry equation coefficientsto to restore the original sensor values. If no EQNS-packet with equation coefficients is sent we will show the values as is (this corresponds to the equation coefficients a=0, b=1 and c=0).
    The sent equation coefficients is used in the equation: a * value2 + b * value + c.
  • The units for the analog values will not be shown if station has not sent a UNIT-packet specifying what unit's to use.
  • The parameter names for the digital bits will be Bit1, Bit2, Bit3 (up to Bit8) if station has not sent a PARAM-packet that specifies the parameter names for each digital bit.
  • All bit labels will be named "On" if station has not sent a UNIT-packet that specifies the label of each bit.
  • A bit is considered to be On when the bit is 1 if station has not sent a BITS-packet that specifies another "Bit sense" (a BITS-packet specify the state of the bits that match the BIT labels)